Terminal Aerodrome Forecast
Issued by NWS Wilmington, NC

Home | Current Version | Previous Version | Text Only | Print | Product List | Glossary On
Versions: 1 2 3 4 5 6 7 8 9 10 11 12 13 14 15 16 17 18 19 20 21
000
FTUS42 KILM 111100 CCA
TAFILM
TAF COR
KILM 111141Z 1112/1212 19011KT P6SM BKN005 OVC100
     FM111300 19006KT P6SM BKN050
     FM111800 16008KT P6SM VCTS BKN040CB
     FM120200 19004KT P6SM VCSH SCT040 BKN250=

USA.gov is the U.S. government's official web portal to all federal, state and local government web resources and services.